sensor_id;sensor_type;location;lat;lon;timestamp;P1;durP1;ratioP1;P2;durP2;ratioP2
78079;SDS011;67298;51.322;5.958;2024-01-25T00:00:27;53.5;;;27.0;;
78079;SDS011;67298;51.322;5.958;2024-01-25T00:05:06;52.8;;;24.7;;
78079;SDS011;67298;51.322;5.958;2024-01-25T00:09:46;45.6;;;22.4;;
78079;SDS011;67298;51.322;5.958;2024-01-25T00:14:25;48.6;;;23.6;;
78079;SDS011;67298;51.322;5.958;2024-01-25T00:19:05;53.1;;;25.4;;
78079;SDS011;67298;51.322;5.958;2024-01-25T00:23:44;26.1;;;17.5;;
78079;SDS011;67298;51.322;5.958;2024-01-25T00:28:26;53.3;;;24.9;;
78079;SDS011;67298;51.322;5.958;2024-01-25T00:33:05;44.3;;;18.9;;
78079;SDS011;67298;51.322;5.958;2024-01-25T00:37:45;49.1;;;22.9;;
78079;SDS011;67298;51.322;5.958;2024-01-25T00:42:24;51.2;;;24.1;;
78079;SDS011;67298;51.322;5.958;2024-01-25T00:47:04;39.0;;;19.8;;
78079;SDS011;67298;51.322;5.958;2024-01-25T00:51:43;48.3;;;23.6;;
78079;SDS011;67298;51.322;5.958;2024-01-25T00:56:22;49.2;;;23.3;;
78079;SDS011;67298;51.322;5.958;2024-01-25T01:01:02;53.8;;;25.9;;
78079;SDS011;67298;51.322;5.958;2024-01-25T01:05:41;47.0;;;23.0;;
78079;SDS011;67298;51.322;5.958;2024-01-25T01:10:21;43.6;;;19.8;;
78079;SDS011;67298;51.322;5.958;2024-01-25T01:15:00;47.8;;;22.8;;
78079;SDS011;67298;51.322;5.958;2024-01-25T01:19:40;45.0;;;21.5;;
78079;SDS011;67298;51.322;5.958;2024-01-25T01:24:19;26.7;;;14.7;;
78079;SDS011;67298;51.322;5.958;2024-01-25T01:28:59;46.7;;;21.7;;
78079;SDS011;67298;51.322;5.958;2024-01-25T01:33:38;51.2;;;20.5;;
78079;SDS011;67298;51.322;5.958;2024-01-25T01:38:20;48.5;;;23.0;;
78079;SDS011;67298;51.322;5.958;2024-01-25T01:42:59;47.0;;;22.8;;
78079;SDS011;67298;51.322;5.958;2024-01-25T01:47:39;47.4;;;22.6;;
78079;SDS011;67298;51.322;5.958;2024-01-25T01:52:19;45.8;;;22.6;;
78079;SDS011;67298;51.322;5.958;2024-01-25T01:56:58;43.6;;;21.3;;
78079;SDS011;67298;51.322;5.958;2024-01-25T02:01:38;50.1;;;23.0;;
78079;SDS011;67298;51.322;5.958;2024-01-25T02:06:19;46.3;;;22.0;;
78079;SDS011;67298;51.322;5.958;2024-01-25T02:10:59;43.2;;;22.3;;
78079;SDS011;67298;51.322;5.958;2024-01-25T02:15:38;49.5;;;24.8;;
78079;SDS011;67298;51.322;5.958;2024-01-25T02:20:18;44.7;;;19.9;;
78079;SDS011;67298;51.322;5.958;2024-01-25T02:24:57;43.8;;;21.1;;
78079;SDS011;67298;51.322;5.958;2024-01-25T02:29:37;50.3;;;23.9;;
78079;SDS011;67298;51.322;5.958;2024-01-25T02:34:17;50.4;;;24.0;;
78079;SDS011;67298;51.322;5.958;2024-01-25T02:38:56;50.8;;;24.4;;
78079;SDS011;67298;51.322;5.958;2024-01-25T02:43:35;51.8;;;24.4;;
78079;SDS011;67298;51.322;5.958;2024-01-25T02:48:15;48.4;;;25.3;;
78079;SDS011;67298;51.322;5.958;2024-01-25T02:52:54;59.1;;;31.3;;
78079;SDS011;67298;51.322;5.958;2024-01-25T02:57:34;49.0;;;23.9;;
78079;SDS011;67298;51.322;5.958;2024-01-25T03:02:13;30.6;;;17.9;;
78079;SDS011;67298;51.322;5.958;2024-01-25T03:06:53;57.3;;;27.7;;
78079;SDS011;67298;51.322;5.958;2024-01-25T03:11:32;51.2;;;23.8;;
78079;SDS011;67298;51.322;5.958;2024-01-25T03:16:12;51.8;;;26.4;;
78079;SDS011;67298;51.322;5.958;2024-01-25T03:20:51;56.7;;;26.7;;
78079;SDS011;67298;51.322;5.958;2024-01-25T03:25:31;42.5;;;21.1;;
78079;SDS011;67298;51.322;5.958;2024-01-25T03:30:10;55.2;;;24.5;;
78079;SDS011;67298;51.322;5.958;2024-01-25T03:34:49;52.1;;;26.6;;
78079;SDS011;67298;51.322;5.958;2024-01-25T03:39:29;57.4;;;29.2;;
78079;SDS011;67298;51.322;5.958;2024-01-25T03:44:10;57.0;;;28.9;;
78079;SDS011;67298;51.322;5.958;2024-01-25T03:48:50;57.9;;;27.8;;
78079;SDS011;67298;51.322;5.958;2024-01-25T03:53:29;58.4;;;28.7;;
78079;SDS011;67298;51.322;5.958;2024-01-25T03:58:08;50.5;;;21.9;;
78079;SDS011;67298;51.322;5.958;2024-01-25T04:02:48;33.4;;;18.2;;
78079;SDS011;67298;51.322;5.958;2024-01-25T04:07:27;53.7;;;25.9;;
78079;SDS011;67298;51.322;5.958;2024-01-25T04:12:07;51.8;;;26.2;;
78079;SDS011;67298;51.322;5.958;2024-01-25T04:16:46;55.2;;;27.3;;
78079;SDS011;67298;51.322;5.958;2024-01-25T04:21:25;49.5;;;24.6;;
78079;SDS011;67298;51.322;5.958;2024-01-25T04:26:05;51.9;;;23.5;;
78079;SDS011;67298;51.322;5.958;2024-01-25T04:30:44;49.1;;;22.2;;
78079;SDS011;67298;51.322;5.958;2024-01-25T04:35:24;34.6;;;16.2;;
78079;SDS011;67298;51.322;5.958;2024-01-25T04:40:05;45.4;;;21.2;;
78079;SDS011;67298;51.322;5.958;2024-01-25T04:44:44;46.9;;;21.6;;
78079;SDS011;67298;51.322;5.958;2024-01-25T04:49:24;50.4;;;23.6;;
78079;SDS011;67298;51.322;5.958;2024-01-25T04:54:04;50.8;;;24.2;;
78079;SDS011;67298;51.322;5.958;2024-01-25T04:58:43;49.6;;;21.9;;
78079;SDS011;67298;51.322;5.958;2024-01-25T05:03:23;38.9;;;18.1;;
78079;SDS011;67298;51.322;5.958;2024-01-25T05:08:04;46.5;;;23.5;;
78079;SDS011;67298;51.322;5.958;2024-01-25T05:12:44;47.5;;;22.7;;
78079;SDS011;67298;51.322;5.958;2024-01-25T05:17:23;52.7;;;24.5;;
78079;SDS011;67298;51.322;5.958;2024-01-25T05:22:02;53.5;;;24.5;;
78079;SDS011;67298;51.322;5.958;2024-01-25T05:26:42;48.5;;;21.5;;
78079;SDS011;67298;51.322;5.958;2024-01-25T05:31:21;51.1;;;25.0;;
78079;SDS011;67298;51.322;5.958;2024-01-25T05:36:00;46.9;;;19.6;;
78079;SDS011;67298;51.322;5.958;2024-01-25T05:40:40;23.1;;;13.5;;
78079;SDS011;67298;51.322;5.958;2024-01-25T05:45:19;53.0;;;24.8;;
78079;SDS011;67298;51.322;5.958;2024-01-25T05:50:01;52.2;;;22.4;;
78079;SDS011;67298;51.322;5.958;2024-01-25T05:54:40;54.6;;;23.7;;
78079;SDS011;67298;51.322;5.958;2024-01-25T05:59:20;48.8;;;23.0;;
78079;SDS011;67298;51.322;5.958;2024-01-25T06:04:01;56.0;;;23.7;;
78079;SDS011;67298;51.322;5.958;2024-01-25T06:08:41;51.7;;;24.7;;
78079;SDS011;67298;51.322;5.958;2024-01-25T06:13:20;47.8;;;21.4;;
78079;SDS011;67298;51.322;5.958;2024-01-25T06:17:59;49.6;;;22.9;;
78079;SDS011;67298;51.322;5.958;2024-01-25T06:22:39;51.0;;;22.9;;
78079;SDS011;67298;51.322;5.958;2024-01-25T06:27:18;49.7;;;22.3;;
78079;SDS011;67298;51.322;5.958;2024-01-25T06:31:58;51.8;;;23.4;;
78079;SDS011;67298;51.322;5.958;2024-01-25T06:36:37;47.4;;;20.8;;
78079;SDS011;67298;51.322;5.958;2024-01-25T06:41:17;33.2;;;16.1;;
78079;SDS011;67298;51.322;5.958;2024-01-25T06:45:56;47.4;;;22.3;;
78079;SDS011;67298;51.322;5.958;2024-01-25T06:50:36;46.9;;;23.3;;
78079;SDS011;67298;51.322;5.958;2024-01-25T06:55:15;51.4;;;25.8;;
78079;SDS011;67298;51.322;5.958;2024-01-25T06:59:56;46.3;;;23.8;;
78079;SDS011;67298;51.322;5.958;2024-01-25T07:04:36;42.9;;;21.7;;
78079;SDS011;67298;51.322;5.958;2024-01-25T07:09:15;49.9;;;24.9;;
78079;SDS011;67298;51.322;5.958;2024-01-25T07:13:56;45.0;;;21.7;;
78079;SDS011;67298;51.322;5.958;2024-01-25T07:18:35;49.9;;;23.6;;
78079;SDS011;67298;51.322;5.958;2024-01-25T07:23:14;43.7;;;20.9;;
78079;SDS011;67298;51.322;5.958;2024-01-25T07:27:54;46.6;;;22.3;;
78079;SDS011;67298;51.322;5.958;2024-01-25T07:32:33;46.1;;;21.6;;
78079;SDS011;67298;51.322;5.958;2024-01-25T07:37:13;37.3;;;17.0;;
78079;SDS011;67298;51.322;5.958;2024-01-25T07:41:52;31.2;;;17.8;;
78079;SDS011;67298;51.322;5.958;2024-01-25T07:46:31;43.6;;;21.7;;
78079;SDS011;67298;51.322;5.958;2024-01-25T07:51:11;44.0;;;20.1;;
78079;SDS011;67298;51.322;5.958;2024-01-25T07:55:50;46.0;;;22.3;;
78079;SDS011;67298;51.322;5.958;2024-01-25T08:00:30;37.2;;;17.4;;
78079;SDS011;67298;51.322;5.958;2024-01-25T08:05:09;41.0;;;19.2;;
78079;SDS011;67298;51.322;5.958;2024-01-25T08:09:51;42.9;;;20.6;;
78079;SDS011;67298;51.322;5.958;2024-01-25T08:14:30;43.1;;;18.9;;
78079;SDS011;67298;51.322;5.958;2024-01-25T08:19:09;30.0;;;11.9;;
78079;SDS011;67298;51.322;5.958;2024-01-25T08:23:49;43.0;;;20.4;;
78079;SDS011;67298;51.322;5.958;2024-01-25T08:28:28;41.1;;;20.5;;
78079;SDS011;67298;51.322;5.958;2024-01-25T08:33:08;44.6;;;22.8;;
78079;SDS011;67298;51.322;5.958;2024-01-25T08:37:47;47.1;;;21.6;;
78079;SDS011;67298;51.322;5.958;2024-01-25T08:42:26;34.9;;;17.5;;
78079;SDS011;67298;51.322;5.958;2024-01-25T08:47:06;47.2;;;22.0;;
78079;SDS011;67298;51.322;5.958;2024-01-25T08:51:45;44.1;;;21.8;;
78079;SDS011;67298;51.322;5.958;2024-01-25T08:56:25;47.9;;;23.7;;
78079;SDS011;67298;51.322;5.958;2024-01-25T09:01:04;45.6;;;21.6;;
78079;SDS011;67298;51.322;5.958;2024-01-25T09:05:43;41.0;;;19.8;;
78079;SDS011;67298;51.322;5.958;2024-01-25T09:10:23;46.4;;;21.6;;
78079;SDS011;67298;51.322;5.958;2024-01-25T09:15:02;46.4;;;22.5;;
78079;SDS011;67298;51.322;5.958;2024-01-25T09:19:42;44.1;;;16.9;;
78079;SDS011;67298;51.322;5.958;2024-01-25T09:24:21;49.0;;;24.0;;
78079;SDS011;67298;51.322;5.958;2024-01-25T09:29:01;34.6;;;18.0;;
78079;SDS011;67298;51.322;5.958;2024-01-25T09:33:40;42.3;;;20.7;;
78079;SDS011;67298;51.322;5.958;2024-01-25T09:38:19;40.4;;;20.3;;
78079;SDS011;67298;51.322;5.958;2024-01-25T09:42:59;40.2;;;20.3;;
78079;SDS011;67298;51.322;5.958;2024-01-25T09:47:38;42.9;;;21.3;;
78079;SDS011;67298;51.322;5.958;2024-01-25T09:52:18;41.8;;;20.0;;
78079;SDS011;67298;51.322;5.958;2024-01-25T09:56:57;43.0;;;20.8;;
78079;SDS011;67298;51.322;5.958;2024-01-25T10:01:37;44.5;;;21.7;;
78079;SDS011;67298;51.322;5.958;2024-01-25T10:06:16;36.4;;;17.6;;
78079;SDS011;67298;51.322;5.958;2024-01-25T10:10:56;40.0;;;19.4;;
78079;SDS011;67298;51.322;5.958;2024-01-25T10:15:35;33.4;;;15.3;;
78079;SDS011;67298;51.322;5.958;2024-01-25T10:20:14;28.8;;;15.4;;
78079;SDS011;67298;51.322;5.958;2024-01-25T10:24:54;36.2;;;17.7;;
78079;SDS011;67298;51.322;5.958;2024-01-25T10:29:34;36.3;;;18.0;;
78079;SDS011;67298;51.322;5.958;2024-01-25T10:34:13;36.2;;;17.5;;
78079;SDS011;67298;51.322;5.958;2024-01-25T10:38:53;45.3;;;18.7;;
78079;SDS011;67298;51.322;5.958;2024-01-25T10:43:32;37.2;;;17.8;;
78079;SDS011;67298;51.322;5.958;2024-01-25T10:48:12;37.8;;;18.2;;
78079;SDS011;67298;51.322;5.958;2024-01-25T10:52:51;36.8;;;17.2;;
78079;SDS011;67298;51.322;5.958;2024-01-25T10:57:32;22.9;;;8.6;;
78079;SDS011;67298;51.322;5.958;2024-01-25T11:02:12;35.9;;;19.2;;
78079;SDS011;67298;51.322;5.958;2024-01-25T11:06:51;37.2;;;17.9;;
78079;SDS011;67298;51.322;5.958;2024-01-25T11:11:31;38.6;;;19.2;;
78079;SDS011;67298;51.322;5.958;2024-01-25T11:16:10;31.0;;;15.7;;
78079;SDS011;67298;51.322;5.958;2024-01-25T11:20:50;47.2;;;21.4;;
78079;SDS011;67298;51.322;5.958;2024-01-25T11:25:32;54.0;;;28.3;;
78079;SDS011;67298;51.322;5.958;2024-01-25T11:30:11;38.9;;;17.5;;
78079;SDS011;67298;51.322;5.958;2024-01-25T11:34:51;36.5;;;17.0;;
78079;SDS011;67298;51.322;5.958;2024-01-25T11:39:33;34.9;;;16.5;;
78079;SDS011;67298;51.322;5.958;2024-01-25T11:44:13;34.7;;;17.3;;
78079;SDS011;67298;51.322;5.958;2024-01-25T11:48:52;37.7;;;17.6;;
78079;SDS011;67298;51.322;5.958;2024-01-25T11:53:33;38.0;;;17.4;;
78079;SDS011;67298;51.322;5.958;2024-01-25T11:58:12;34.2;;;18.3;;
78079;SDS011;67298;51.322;5.958;2024-01-25T12:02:52;44.2;;;18.8;;
78079;SDS011;67298;51.322;5.958;2024-01-25T12:07:33;42.7;;;18.8;;
78079;SDS011;67298;51.322;5.958;2024-01-25T12:12:14;41.4;;;19.0;;
78079;SDS011;67298;51.322;5.958;2024-01-25T12:16:54;36.0;;;16.8;;
78079;SDS011;67298;51.322;5.958;2024-01-25T12:21:47;33.3;;;16.5;;
78079;SDS011;67298;51.322;5.958;2024-01-25T12:26:26;38.6;;;18.5;;
78079;SDS011;67298;51.322;5.958;2024-01-25T12:31:06;48.3;;;20.9;;
78079;SDS011;67298;51.322;5.958;2024-01-25T12:35:46;49.9;;;22.8;;
78079;SDS011;67298;51.322;5.958;2024-01-25T12:40:27;36.2;;;16.2;;
78079;SDS011;67298;51.322;5.958;2024-01-25T12:45:06;26.5;;;12.8;;
78079;SDS011;67298;51.322;5.958;2024-01-25T12:49:46;34.5;;;16.4;;
78079;SDS011;67298;51.322;5.958;2024-01-25T12:54:25;36.2;;;18.6;;
78079;SDS011;67298;51.322;5.958;2024-01-25T12:59:04;25.8;;;12.8;;
78079;SDS011;67298;51.322;5.958;2024-01-25T13:03:46;31.4;;;14.9;;
78079;SDS011;67298;51.322;5.958;2024-01-25T13:08:26;27.7;;;13.0;;
78079;SDS011;67298;51.322;5.958;2024-01-25T13:13:05;32.3;;;15.8;;
78079;SDS011;67298;51.322;5.958;2024-01-25T13:17:45;32.3;;;15.2;;
78079;SDS011;67298;51.322;5.958;2024-01-25T13:22:24;32.3;;;15.1;;
78079;SDS011;67298;51.322;5.958;2024-01-25T13:27:04;33.3;;;15.9;;
78079;SDS011;67298;51.322;5.958;2024-01-25T13:31:43;29.9;;;15.2;;
78079;SDS011;67298;51.322;5.958;2024-01-25T13:36:22;19.8;;;8.0;;
78079;SDS011;67298;51.322;5.958;2024-01-25T13:41:02;34.0;;;15.8;;
78079;SDS011;67298;51.322;5.958;2024-01-25T13:45:41;31.7;;;15.0;;
78079;SDS011;67298;51.322;5.958;2024-01-25T13:50:21;33.9;;;16.1;;
78079;SDS011;67298;51.322;5.958;2024-01-25T13:55:00;35.1;;;16.8;;
78079;SDS011;67298;51.322;5.958;2024-01-25T13:59:40;29.1;;;13.0;;
78079;SDS011;67298;51.322;5.958;2024-01-25T14:04:19;33.0;;;14.8;;
78079;SDS011;67298;51.322;5.958;2024-01-25T14:08:59;36.0;;;16.5;;
78079;SDS011;67298;51.322;5.958;2024-01-25T14:13:38;34.6;;;16.3;;
78079;SDS011;67298;51.322;5.958;2024-01-25T14:18:18;38.3;;;16.8;;
78079;SDS011;67298;51.322;5.958;2024-01-25T14:22:57;29.2;;;14.0;;
78079;SDS011;67298;51.322;5.958;2024-01-25T14:27:37;33.9;;;15.5;;
78079;SDS011;67298;51.322;5.958;2024-01-25T14:32:16;36.2;;;15.2;;
78079;SDS011;67298;51.322;5.958;2024-01-25T14:36:55;28.4;;;17.5;;
78079;SDS011;67298;51.322;5.958;2024-01-25T14:41:35;34.4;;;16.3;;
78079;SDS011;67298;51.322;5.958;2024-01-25T14:46:14;31.6;;;15.9;;
78079;SDS011;67298;51.322;5.958;2024-01-25T14:50:54;36.5;;;17.5;;
78079;SDS011;67298;51.322;5.958;2024-01-25T14:55:33;38.7;;;19.2;;
78079;SDS011;67298;51.322;5.958;2024-01-25T15:00:12;34.5;;;16.6;;
78079;SDS011;67298;51.322;5.958;2024-01-25T15:04:52;45.7;;;21.9;;
78079;SDS011;67298;51.322;5.958;2024-01-25T15:09:31;35.6;;;18.0;;
78079;SDS011;67298;51.322;5.958;2024-01-25T15:14:11;37.8;;;18.0;;
78079;SDS011;67298;51.322;5.958;2024-01-25T15:18:50;37.3;;;16.1;;
78079;SDS011;67298;51.322;5.958;2024-01-25T15:23:32;27.5;;;15.4;;
78079;SDS011;67298;51.322;5.958;2024-01-25T15:28:11;34.7;;;17.2;;
78079;SDS011;67298;51.322;5.958;2024-01-25T15:32:51;33.5;;;15.7;;
78079;SDS011;67298;51.322;5.958;2024-01-25T15:37:30;26.4;;;14.8;;
78079;SDS011;67298;51.322;5.958;2024-01-25T15:42:09;30.2;;;16.0;;
78079;SDS011;67298;51.322;5.958;2024-01-25T15:46:49;28.5;;;12.3;;
78079;SDS011;67298;51.322;5.958;2024-01-25T15:51:28;31.7;;;15.2;;
78079;SDS011;67298;51.322;5.958;2024-01-25T15:56:08;28.7;;;13.4;;
78079;SDS011;67298;51.322;5.958;2024-01-25T16:00:47;27.4;;;13.6;;
78079;SDS011;67298;51.322;5.958;2024-01-25T16:05:26;33.2;;;15.6;;
78079;SDS011;67298;51.322;5.958;2024-01-25T16:10:06;27.4;;;12.8;;
78079;SDS011;67298;51.322;5.958;2024-01-25T16:14:45;15.4;;;10.0;;
78079;SDS011;67298;51.322;5.958;2024-01-25T16:19:25;29.9;;;12.9;;
78079;SDS011;67298;51.322;5.958;2024-01-25T16:24:04;32.1;;;14.5;;
78079;SDS011;67298;51.322;5.958;2024-01-25T16:28:43;31.2;;;15.1;;
78079;SDS011;67298;51.322;5.958;2024-01-25T16:33:24;30.7;;;12.9;;
78079;SDS011;67298;51.322;5.958;2024-01-25T16:38:03;34.2;;;14.1;;
78079;SDS011;67298;51.322;5.958;2024-01-25T16:42:42;34.7;;;16.0;;
78079;SDS011;67298;51.322;5.958;2024-01-25T16:47:24;30.5;;;14.6;;
78079;SDS011;67298;51.322;5.958;2024-01-25T16:52:03;34.1;;;15.7;;
78079;SDS011;67298;51.322;5.958;2024-01-25T16:56:45;35.7;;;15.0;;
78079;SDS011;67298;51.322;5.958;2024-01-25T17:01:24;24.3;;;12.1;;
78079;SDS011;67298;51.322;5.958;2024-01-25T17:06:03;31.9;;;14.9;;
78079;SDS011;67298;51.322;5.958;2024-01-25T17:10:45;29.9;;;13.5;;
78079;SDS011;67298;51.322;5.958;2024-01-25T17:15:25;37.8;;;17.1;;
78079;SDS011;67298;51.322;5.958;2024-01-25T17:20:04;42.4;;;17.1;;
78079;SDS011;67298;51.322;5.958;2024-01-25T17:24:45;34.1;;;16.2;;
78079;SDS011;67298;51.322;5.958;2024-01-25T17:29:24;33.8;;;16.9;;
78079;SDS011;67298;51.322;5.958;2024-01-25T17:34:04;54.6;;;28.3;;
78079;SDS011;67298;51.322;5.958;2024-01-25T17:38:45;26.9;;;14.2;;
78079;SDS011;67298;51.322;5.958;2024-01-25T17:43:24;30.1;;;15.1;;
78079;SDS011;67298;51.322;5.958;2024-01-25T17:48:04;28.3;;;13.0;;
78079;SDS011;67298;51.322;5.958;2024-01-25T17:52:43;28.9;;;13.5;;
78079;SDS011;67298;51.322;5.958;2024-01-25T17:57:23;33.5;;;15.3;;
78079;SDS011;67298;51.322;5.958;2024-01-25T18:02:02;18.7;;;9.6;;
78079;SDS011;67298;51.322;5.958;2024-01-25T18:06:43;26.4;;;12.3;;
78079;SDS011;67298;51.322;5.958;2024-01-25T18:11:23;26.3;;;12.3;;
78079;SDS011;67298;51.322;5.958;2024-01-25T18:16:02;20.0;;;10.5;;
78079;SDS011;67298;51.322;5.958;2024-01-25T18:20:42;25.2;;;12.0;;
78079;SDS011;67298;51.322;5.958;2024-01-25T18:25:21;38.0;;;21.2;;
78079;SDS011;67298;51.322;5.958;2024-01-25T18:30:00;43.6;;;24.7;;
78079;SDS011;67298;51.322;5.958;2024-01-25T18:34:40;30.8;;;13.8;;
78079;SDS011;67298;51.322;5.958;2024-01-25T18:39:20;24.3;;;12.5;;
78079;SDS011;67298;51.322;5.958;2024-01-25T18:43:59;30.4;;;14.3;;
78079;SDS011;67298;51.322;5.958;2024-01-25T18:48:39;32.7;;;14.5;;
78079;SDS011;67298;51.322;5.958;2024-01-25T18:53:18;24.3;;;7.4;;
78079;SDS011;67298;51.322;5.958;2024-01-25T18:57:57;29.4;;;13.0;;
78079;SDS011;67298;51.322;5.958;2024-01-25T19:02:37;16.0;;;8.2;;
78079;SDS011;67298;51.322;5.958;2024-01-25T19:07:16;27.7;;;13.6;;
78079;SDS011;67298;51.322;5.958;2024-01-25T19:11:56;24.4;;;11.6;;
78079;SDS011;67298;51.322;5.958;2024-01-25T19:16:35;18.5;;;10.3;;
78079;SDS011;67298;51.322;5.958;2024-01-25T19:21:15;22.5;;;10.9;;
78079;SDS011;67298;51.322;5.958;2024-01-25T19:25:54;25.6;;;11.7;;
78079;SDS011;67298;51.322;5.958;2024-01-25T19:30:34;28.1;;;13.2;;
78079;SDS011;67298;51.322;5.958;2024-01-25T19:35:14;21.6;;;11.0;;
78079;SDS011;67298;51.322;5.958;2024-01-25T19:39:53;20.3;;;12.1;;
78079;SDS011;67298;51.322;5.958;2024-01-25T19:44:33;28.4;;;13.4;;
78079;SDS011;67298;51.322;5.958;2024-01-25T19:49:12;27.4;;;11.7;;
78079;SDS011;67298;51.322;5.958;2024-01-25T19:53:52;25.6;;;9.9;;
78079;SDS011;67298;51.322;5.958;2024-01-25T19:58:31;25.0;;;11.3;;
78079;SDS011;67298;51.322;5.958;2024-01-25T20:03:11;22.9;;;11.6;;
78079;SDS011;67298;51.322;5.958;2024-01-25T20:07:51;28.2;;;13.8;;
78079;SDS011;67298;51.322;5.958;2024-01-25T20:12:32;27.9;;;13.3;;
78079;SDS011;67298;51.322;5.958;2024-01-25T20:17:12;28.9;;;11.2;;
78079;SDS011;67298;51.322;5.958;2024-01-25T20:21:51;26.2;;;11.9;;
78079;SDS011;67298;51.322;5.958;2024-01-25T20:26:31;25.7;;;11.1;;
78079;SDS011;67298;51.322;5.958;2024-01-25T20:31:10;26.8;;;13.2;;
78079;SDS011;67298;51.322;5.958;2024-01-25T20:35:49;25.8;;;13.0;;
78079;SDS011;67298;51.322;5.958;2024-01-25T20:40:31;27.4;;;11.4;;
78079;SDS011;67298;51.322;5.958;2024-01-25T20:45:10;26.4;;;12.5;;
78079;SDS011;67298;51.322;5.958;2024-01-25T20:49:52;37.1;;;14.7;;
78079;SDS011;67298;51.322;5.958;2024-01-25T20:54:31;25.0;;;15.0;;
78079;SDS011;67298;51.322;5.958;2024-01-25T20:59:10;29.5;;;14.0;;
78079;SDS011;67298;51.322;5.958;2024-01-25T21:03:50;27.4;;;12.6;;
78079;SDS011;67298;51.322;5.958;2024-01-25T21:08:30;27.3;;;12.5;;
78079;SDS011;67298;51.322;5.958;2024-01-25T21:13:09;29.4;;;14.1;;
78079;SDS011;67298;51.322;5.958;2024-01-25T21:17:49;14.9;;;9.1;;
78079;SDS011;67298;51.322;5.958;2024-01-25T21:22:28;18.8;;;9.2;;
78079;SDS011;67298;51.322;5.958;2024-01-25T21:27:08;27.8;;;12.8;;
78079;SDS011;67298;51.322;5.958;2024-01-25T21:31:49;17.5;;;9.3;;
78079;SDS011;67298;51.322;5.958;2024-01-25T21:36:29;21.8;;;11.7;;
78079;SDS011;67298;51.322;5.958;2024-01-25T21:41:08;26.1;;;11.6;;
78079;SDS011;67298;51.322;5.958;2024-01-25T21:45:47;25.2;;;12.5;;
78079;SDS011;67298;51.322;5.958;2024-01-25T21:50:27;24.3;;;13.0;;
78079;SDS011;67298;51.322;5.958;2024-01-25T21:55:06;22.3;;;11.7;;
78079;SDS011;67298;51.322;5.958;2024-01-25T21:59:46;26.6;;;13.2;;
78079;SDS011;67298;51.322;5.958;2024-01-25T22:04:25;28.2;;;11.3;;
78079;SDS011;67298;51.322;5.958;2024-01-25T22:09:05;26.5;;;12.5;;
78079;SDS011;67298;51.322;5.958;2024-01-25T22:13:45;26.6;;;13.3;;
78079;SDS011;67298;51.322;5.958;2024-01-25T22:18:25;25.1;;;13.1;;
78079;SDS011;67298;51.322;5.958;2024-01-25T22:23:04;25.8;;;13.2;;
78079;SDS011;67298;51.322;5.958;2024-01-25T22:27:44;22.4;;;11.7;;
78079;SDS011;67298;51.322;5.958;2024-01-25T22:32:23;16.6;;;6.9;;
78079;SDS011;67298;51.322;5.958;2024-01-25T22:37:02;28.9;;;13.3;;
78079;SDS011;67298;51.322;5.958;2024-01-25T22:41:44;24.8;;;11.2;;
78079;SDS011;67298;51.322;5.958;2024-01-25T22:46:23;25.0;;;12.8;;
78079;SDS011;67298;51.322;5.958;2024-01-25T22:51:03;22.6;;;11.3;;
78079;SDS011;67298;51.322;5.958;2024-01-25T22:55:43;26.6;;;14.2;;
78079;SDS011;67298;51.322;5.958;2024-01-25T23:00:22;25.4;;;12.3;;
78079;SDS011;67298;51.322;5.958;2024-01-25T23:05:01;21.9;;;11.2;;
78079;SDS011;67298;51.322;5.958;2024-01-25T23:09:41;27.1;;;13.2;;
78079;SDS011;67298;51.322;5.958;2024-01-25T23:14:20;24.8;;;12.4;;
78079;SDS011;67298;51.322;5.958;2024-01-25T23:19:00;21.4;;;10.0;;
78079;SDS011;67298;51.322;5.958;2024-01-25T23:23:39;27.2;;;12.4;;
78079;SDS011;67298;51.322;5.958;2024-01-25T23:28:19;20.3;;;10.5;;
78079;SDS011;67298;51.322;5.958;2024-01-25T23:32:58;21.1;;;9.1;;
78079;SDS011;67298;51.322;5.958;2024-01-25T23:37:37;26.3;;;12.6;;
78079;SDS011;67298;51.322;5.958;2024-01-25T23:42:17;26.7;;;12.1;;
78079;SDS011;67298;51.322;5.958;2024-01-25T23:46:56;28.8;;;12.8;;
78079;SDS011;67298;51.322;5.958;2024-01-25T23:51:36;25.5;;;11.1;;
78079;SDS011;67298;51.322;5.958;2024-01-25T23:56:15;21.9;;;10.8;;
